createdAt,value
2022-08-24T00:02:31.015Z,21.17
2022-08-24T00:07:34.388Z,21.09
2022-08-24T00:12:38.581Z,21.00
2022-08-24T00:17:41.763Z,20.92
2022-08-24T00:22:44.713Z,20.81
2022-08-24T00:27:49.247Z,20.83
2022-08-24T00:32:53.766Z,20.79
2022-08-24T00:37:57.366Z,20.70
2022-08-24T00:43:04.567Z,20.66
2022-08-24T00:48:12.874Z,20.61
2022-08-24T00:53:24.340Z,20.46
2022-08-24T00:58:32.617Z,20.49
2022-08-24T01:03:37.347Z,20.45
2022-08-24T01:08:40.891Z,20.25
2022-08-24T01:13:47.857Z,20.31
2022-08-24T01:18:50.769Z,20.17
2022-08-24T01:23:58.434Z,20.14
2022-08-24T01:29:05.229Z,20.08
2022-08-24T01:34:09.254Z,20.02
2022-08-24T01:39:16.349Z,20.00
2022-08-24T01:44:20.452Z,19.97
2022-08-24T01:49:25.947Z,19.94
2022-08-24T01:54:31.361Z,19.88
2022-08-24T01:59:38.646Z,19.80
2022-08-24T02:04:44.224Z,19.80
2022-08-24T02:09:49.347Z,19.71
2022-08-24T02:14:53.395Z,19.75
2022-08-24T02:19:56.324Z,19.67
2022-08-24T02:25:00.602Z,19.69
2022-08-24T02:30:06.362Z,19.68
2022-08-24T02:35:11.073Z,19.59
2022-08-24T02:40:15.651Z,19.55
2022-08-24T02:45:18.982Z,19.56
2022-08-24T02:50:23.144Z,19.45
2022-08-24T02:55:27.692Z,19.44
2022-08-24T03:00:30.613Z,19.33
2022-08-24T03:05:34.167Z,19.27
2022-08-24T03:10:38.663Z,19.23
2022-08-24T03:15:41.926Z,19.24
2022-08-24T03:20:44.907Z,19.14
2022-08-24T03:25:49.333Z,19.18
2022-08-24T03:30:53.507Z,19.19
2022-08-24T03:35:57.805Z,19.17
2022-08-24T03:41:02.245Z,19.16
2022-08-24T03:46:07.433Z,19.11
2022-08-24T03:51:13.334Z,19.20
2022-08-24T03:56:18.454Z,19.15
2022-08-24T04:01:22.729Z,19.12
2022-08-24T04:06:26.454Z,19.13
2022-08-24T04:11:32.202Z,19.19
2022-08-24T04:16:36.406Z,19.17
2022-08-24T04:21:50.132Z,19.19
2022-08-24T04:26:56.392Z,19.21
2022-08-24T04:32:00.950Z,19.15
2022-08-24T04:37:08.534Z,19.10
2022-08-24T04:42:15.359Z,19.12
2022-08-24T04:47:18.781Z,19.11
2022-08-24T04:52:22.682Z,19.17
2022-08-24T04:57:26.907Z,19.24
2022-08-24T05:02:31.046Z,19.25
2022-08-24T05:07:36.478Z,19.35
2022-08-24T05:12:40.998Z,19.37
2022-08-24T05:17:51.398Z,19.34
2022-08-24T05:22:56.334Z,19.37
2022-08-24T05:28:01.723Z,19.53
2022-08-24T05:33:05.013Z,19.64
2022-08-24T05:38:09.531Z,19.72
2022-08-24T05:43:15.664Z,19.91
2022-08-24T05:48:19.274Z,20.07
2022-08-24T05:53:57.143Z,20.31
2022-08-24T05:59:05.576Z,20.49
2022-08-24T06:04:08.532Z,20.56
2022-08-24T06:09:12.600Z,20.82
2022-08-24T06:14:21.882Z,21.04
2022-08-24T06:19:31.457Z,21.08
2022-08-24T06:24:54.945Z,21.06
2022-08-24T06:30:01.312Z,21.18
2022-08-24T06:35:33.199Z,21.36
2022-08-24T06:40:36.175Z,22.33
2022-08-24T06:45:41.616Z,23.33
2022-08-24T06:50:49.657Z,25.08
2022-08-24T06:55:54.744Z,25.52
2022-08-24T07:01:08.267Z,25.55
2022-08-24T07:06:12.567Z,25.56
2022-08-24T07:11:20.112Z,26.39
2022-08-24T07:16:24.957Z,27.37
2022-08-24T07:21:32.989Z,28.86
2022-08-24T07:26:36.057Z,30.98
2022-08-24T07:31:41.376Z,32.59
2022-08-24T07:36:50.729Z,33.68
2022-08-24T07:42:12.326Z,32.89
2022-08-24T07:47:37.711Z,33.29
2022-08-24T07:52:48.454Z,33.09
2022-08-24T07:57:51.498Z,32.66
2022-08-24T08:02:56.810Z,31.51
2022-08-24T08:08:00.186Z,30.57
2022-08-24T08:13:04.291Z,30.31
2022-08-24T08:18:09.444Z,28.15
2022-08-24T08:23:31.846Z,26.40
2022-08-24T08:28:42.700Z,25.52
2022-08-24T08:33:47.401Z,24.99
2022-08-24T08:38:51.437Z,24.96
2022-08-24T08:44:01.178Z,25.30
2022-08-24T08:49:16.827Z,25.21
2022-08-24T08:54:43.748Z,25.23
2022-08-24T09:00:15.579Z,25.52
2022-08-24T09:06:04.853Z,25.56
2022-08-24T09:11:20.559Z,25.88
2022-08-24T09:16:39.715Z,25.86
2022-08-24T09:21:57.495Z,25.59
2022-08-24T09:27:07.080Z,25.87
2022-08-24T09:32:28.544Z,26.20
2022-08-24T09:37:50.801Z,25.92
2022-08-24T09:43:32.748Z,25.80
2022-08-24T09:49:13.626Z,26.07
2022-08-24T09:54:36.800Z,26.24
2022-08-24T10:00:05.939Z,26.39
2022-08-24T10:05:29.193Z,26.49
2022-08-24T10:10:46.872Z,26.60
2022-08-24T10:16:09.113Z,26.65
2022-08-24T10:21:25.508Z,26.51
2022-08-24T10:26:41.144Z,26.59
2022-08-24T10:32:03.875Z,26.86
2022-08-24T10:37:42.422Z,26.74
2022-08-24T10:43:37.773Z,26.93
2022-08-24T10:49:02.922Z,26.78
2022-08-24T10:54:12.293Z,26.68
2022-08-24T10:59:23.475Z,27.08
2022-08-24T11:04:30.538Z,27.08
2022-08-24T11:09:48.314Z,27.08
2022-08-24T11:14:54.047Z,27.38
2022-08-24T11:19:59.371Z,27.71
2022-08-24T11:25:11.602Z,27.60
2022-08-24T11:30:26.013Z,27.45
2022-08-24T11:35:37.301Z,27.50
2022-08-24T11:40:45.453Z,27.69
2022-08-24T11:46:01.748Z,27.84
2022-08-24T11:51:15.952Z,27.89
2022-08-24T11:56:26.394Z,27.98
2022-08-24T12:01:36.083Z,28.17
2022-08-24T12:06:59.607Z,28.10
2022-08-24T12:12:12.267Z,27.85
2022-08-24T12:17:20.334Z,27.71
2022-08-24T12:22:24.897Z,27.60
2022-08-24T12:27:33.466Z,27.75
2022-08-24T12:32:41.580Z,27.84
2022-08-24T12:37:49.206Z,28.20
2022-08-24T12:42:56.409Z,28.37
2022-08-24T12:48:06.433Z,28.48
2022-08-24T12:53:27.000Z,28.51
2022-08-24T12:58:55.704Z,28.59
2022-08-24T13:04:13.455Z,28.53
2022-08-24T13:09:29.868Z,28.65
2022-08-24T13:14:35.528Z,28.89
2022-08-24T13:19:41.980Z,28.74
2022-08-24T13:24:46.199Z,28.73
2022-08-24T13:30:09.130Z,28.71
2022-08-24T13:35:35.709Z,28.78
2022-08-24T13:40:48.843Z,28.59
2022-08-24T13:45:58.400Z,28.74
2022-08-24T13:51:26.494Z,28.56
2022-08-24T13:56:39.099Z,28.73
2022-08-24T14:02:06.840Z,28.72
2022-08-24T14:07:17.178Z,28.69
2022-08-24T14:12:38.958Z,28.45
2022-08-24T14:17:55.128Z,28.61
2022-08-24T14:23:04.367Z,28.61
2022-08-24T14:28:36.042Z,28.65
2022-08-24T14:33:52.021Z,28.76
2022-08-24T14:39:04.824Z,28.42
2022-08-24T14:44:26.187Z,28.46
2022-08-24T14:49:36.814Z,28.59
2022-08-24T14:54:47.761Z,28.52
2022-08-24T15:00:06.375Z,28.56
2022-08-24T15:05:22.071Z,28.56
2022-08-24T15:10:28.873Z,28.57
2022-08-24T15:15:36.261Z,28.43
2022-08-24T15:20:54.593Z,28.47
2022-08-24T15:26:04.753Z,28.40
2022-08-24T15:31:11.796Z,28.34
2022-08-24T15:36:18.171Z,28.36
2022-08-24T15:41:24.593Z,28.41
2022-08-24T15:46:33.863Z,28.33
2022-08-24T15:51:47.820Z,28.32
2022-08-24T15:56:53.601Z,28.27
2022-08-24T16:02:28.922Z,28.19
2022-08-24T16:07:55.022Z,28.19
2022-08-24T16:13:08.015Z,28.18
2022-08-24T16:18:12.569Z,28.13
2022-08-24T16:23:26.812Z,28.02
2022-08-24T16:28:37.373Z,28.01
2022-08-24T16:33:44.588Z,27.94
2022-08-24T16:38:51.086Z,27.92
2022-08-24T16:43:54.369Z,27.84
2022-08-24T16:48:57.483Z,27.84
2022-08-24T16:54:01.690Z,27.71
2022-08-24T16:59:06.915Z,27.63
2022-08-24T17:04:09.902Z,27.69
2022-08-24T17:09:14.232Z,27.57
2022-08-24T17:14:18.031Z,27.61
2022-08-24T17:19:21.444Z,27.48
2022-08-24T17:24:26.811Z,27.40
2022-08-24T17:29:30.195Z,27.39
2022-08-24T17:34:33.280Z,27.24
2022-08-24T17:39:37.640Z,27.23
2022-08-24T17:44:40.574Z,27.19
2022-08-24T17:49:43.526Z,27.04
2022-08-24T17:54:47.748Z,26.98
2022-08-24T17:59:51.332Z,26.82
2022-08-24T18:04:54.185Z,26.79
2022-08-24T18:10:00.654Z,26.69
2022-08-24T18:15:03.606Z,26.59
2022-08-24T18:20:10.121Z,26.59
2022-08-24T18:25:16.158Z,26.45
2022-08-24T18:30:22.601Z,26.31
2022-08-24T18:35:28.482Z,26.27
2022-08-24T18:40:34.352Z,26.19
2022-08-24T18:45:37.313Z,26.10
2022-08-24T18:50:42.277Z,26.00
2022-08-24T18:55:48.007Z,25.94
2022-08-24T19:00:51.693Z,25.89
2022-08-24T19:05:55.628Z,25.80
2022-08-24T19:11:00.311Z,25.59
2022-08-24T19:16:03.326Z,25.24
2022-08-24T19:21:06.621Z,25.11
2022-08-24T19:26:10.942Z,25.00
2022-08-24T19:31:14.668Z,24.85
2022-08-24T19:36:18.381Z,24.65
2022-08-24T19:41:23.140Z,24.54
2022-08-24T19:46:40.167Z,24.45
2022-08-24T19:51:43.684Z,24.34
2022-08-24T19:56:48.171Z,24.23
2022-08-24T20:01:51.197Z,24.11
2022-08-24T20:06:54.316Z,23.98
2022-08-24T20:11:58.572Z,23.93
2022-08-24T20:17:01.550Z,23.82
2022-08-24T20:22:13.213Z,23.76
2022-08-24T20:27:22.076Z,23.67
2022-08-24T20:32:25.021Z,23.53
2022-08-24T20:37:29.827Z,23.57
2022-08-24T20:42:34.102Z,23.50
2022-08-24T20:47:48.742Z,23.41
2022-08-24T20:52:52.780Z,23.40
2022-08-24T20:58:00.655Z,23.31
2022-08-24T21:03:03.754Z,23.23
2022-08-24T21:08:06.851Z,23.21
2022-08-24T21:13:11.479Z,23.17
2022-08-24T21:18:14.766Z,23.11
2022-08-24T21:23:17.591Z,23.04
2022-08-24T21:28:22.549Z,22.97
2022-08-24T21:33:43.103Z,23.01
2022-08-24T21:38:45.911Z,22.98
2022-08-24T21:43:50.693Z,23.00
2022-08-24T21:48:53.627Z,23.00
2022-08-24T21:53:59.612Z,22.94
2022-08-24T21:59:04.420Z,22.88
2022-08-24T22:04:08.776Z,22.77
2022-08-24T22:09:11.668Z,22.76
2022-08-24T22:14:16.792Z,22.64
2022-08-24T22:19:20.027Z,22.63
2022-08-24T22:24:23.139Z,22.61
2022-08-24T22:29:27.381Z,22.52
2022-08-24T22:34:30.956Z,22.48
2022-08-24T22:39:34.076Z,22.42
2022-08-24T22:44:38.328Z,22.34
2022-08-24T22:49:44.341Z,22.38
2022-08-24T22:54:47.202Z,22.32
2022-08-24T22:59:52.079Z,22.18
2022-08-24T23:04:55.051Z,22.18
2022-08-24T23:09:58.013Z,22.06
2022-08-24T23:15:02.316Z,22.01
2022-08-24T23:20:06.421Z,22.01
2022-08-24T23:25:14.739Z,21.98
2022-08-24T23:30:19.085Z,21.95
2022-08-24T23:35:21.895Z,21.77
2022-08-24T23:40:25.081Z,21.75
2022-08-24T23:45:30.555Z,21.68
2022-08-24T23:50:34.361Z,21.69
2022-08-24T23:55:37.186Z,21.62
